createdAt,value
2022-09-23T00:01:11.149Z,85.88
2022-09-23T00:03:41.906Z,86.45
2022-09-23T00:06:11.731Z,86.52
2022-09-23T00:08:39.789Z,85.92
2022-09-23T00:11:10.504Z,85.87
2022-09-23T00:13:37.919Z,85.92
2022-09-23T00:16:06.706Z,85.65
2022-09-23T00:18:33.550Z,85.94
2022-09-23T00:21:12.190Z,86.61
2022-09-23T00:23:40.519Z,86.83
2022-09-23T00:26:09.885Z,86.89
2022-09-23T00:28:36.594Z,86.48
2022-09-23T00:31:06.344Z,86.69
2022-09-23T00:33:32.993Z,86.09
2022-09-23T00:36:05.889Z,86.11
2022-09-23T00:38:33.974Z,86.04
2022-09-23T00:41:00.978Z,86.03
2022-09-23T00:43:41.267Z,86.31
2022-09-23T00:46:10.187Z,86.07
2022-09-23T00:48:39.663Z,86.20
2022-09-23T00:51:12.190Z,86.25
2022-09-23T00:53:39.766Z,86.50
2022-09-23T00:56:10.213Z,85.74
2022-09-23T00:58:41.825Z,85.91
2022-09-23T01:01:08.815Z,85.81
2022-09-23T01:03:35.465Z,86.15
2022-09-23T01:06:01.936Z,86.19
2022-09-23T01:08:29.009Z,86.36
2022-09-23T01:11:27.389Z,86.63
2022-09-23T01:14:28.101Z,86.87
2022-09-23T01:17:21.012Z,86.92
2022-09-23T01:20:09.469Z,86.04
2022-09-23T01:23:06.728Z,86.53
2022-09-23T01:25:42.007Z,86.76
2022-09-23T01:29:02.343Z,86.06
2022-09-23T01:31:35.339Z,86.61
2022-09-23T01:34:20.219Z,86.41
2022-09-23T01:36:55.125Z,86.73
2022-09-23T01:39:36.884Z,86.66
2022-09-23T01:42:20.145Z,86.53
2022-09-23T01:44:56.664Z,86.43
2022-09-23T01:47:56.734Z,87.00
2022-09-23T01:50:50.235Z,86.68
2022-09-23T01:53:24.705Z,86.92
2022-09-23T01:55:57.573Z,86.88
2022-09-23T01:58:30.513Z,86.98
2022-09-23T02:01:02.782Z,86.97
2022-09-23T02:03:36.635Z,87.27
2022-09-23T02:06:12.449Z,87.51
2022-09-23T02:08:42.814Z,87.09
2022-09-23T02:11:15.064Z,87.24
2022-09-23T02:13:48.537Z,87.35
2022-09-23T02:16:36.110Z,86.90
2022-09-23T02:19:11.525Z,87.20
2022-09-23T02:21:47.457Z,86.75
2022-09-23T02:24:19.319Z,86.96
2022-09-23T02:26:55.479Z,86.99
2022-09-23T02:29:34.114Z,86.88
2022-09-23T02:32:12.588Z,86.59
2022-09-23T02:35:15.626Z,87.00
2022-09-23T02:37:53.500Z,87.16
2022-09-23T02:40:40.249Z,86.80
2022-09-23T02:43:15.063Z,86.97
2022-09-23T02:45:41.652Z,86.87
2022-09-23T02:48:14.668Z,86.69
2022-09-23T02:50:41.392Z,87.01
2022-09-23T02:53:07.899Z,86.89
2022-09-23T02:55:34.449Z,86.91
2022-09-23T02:58:02.307Z,86.53
2022-09-23T03:00:54.051Z,86.35
2022-09-23T03:03:36.889Z,86.95
2022-09-23T03:06:16.258Z,86.35
2022-09-23T03:08:53.534Z,86.41
2022-09-23T03:11:21.795Z,86.89
2022-09-23T03:14:05.041Z,86.71
2022-09-23T03:16:34.554Z,86.76
2022-09-23T03:19:23.969Z,86.53
2022-09-23T03:22:12.496Z,86.18
2022-09-23T03:24:44.735Z,86.49
2022-09-23T03:27:18.265Z,86.28
2022-09-23T03:29:48.982Z,86.40
2022-09-23T03:32:18.328Z,86.44
2022-09-23T03:34:48.419Z,86.15
2022-09-23T03:37:26.283Z,86.03
2022-09-23T03:40:20.528Z,86.11
2022-09-23T03:42:49.352Z,86.15
2022-09-23T03:45:22.081Z,86.22
2022-09-23T03:47:48.642Z,85.99
2022-09-23T03:50:17.296Z,85.54
2022-09-23T03:52:44.529Z,85.95
2022-09-23T03:55:11.428Z,85.59
2022-09-23T03:57:37.942Z,85.55
2022-09-23T04:00:07.143Z,85.81
2022-09-23T04:02:40.828Z,85.94
2022-09-23T04:05:08.909Z,85.84
2022-09-23T04:07:35.547Z,85.19
2022-09-23T04:10:02.096Z,85.69
2022-09-23T04:12:28.558Z,85.31
2022-09-23T04:14:54.963Z,85.41
2022-09-23T04:17:21.428Z,85.47
2022-09-23T04:19:48.281Z,85.58
2022-09-23T04:22:14.724Z,85.82
2022-09-23T04:24:41.248Z,85.73
2022-09-23T04:27:07.660Z,86.02
2022-09-23T04:29:34.080Z,86.24
2022-09-23T04:32:00.817Z,86.17
2022-09-23T04:34:27.382Z,86.52
2022-09-23T04:36:53.814Z,86.83
2022-09-23T04:39:20.749Z,86.40
2022-09-23T04:41:48.523Z,86.78
2022-09-23T04:44:15.585Z,86.49
2022-09-23T04:46:43.864Z,86.74
2022-09-23T04:49:10.660Z,87.12
2022-09-23T04:51:37.209Z,87.07
2022-09-23T04:54:03.819Z,87.33
2022-09-23T04:56:33.941Z,87.22
2022-09-23T04:59:01.802Z,87.02
2022-09-23T05:01:31.163Z,87.23
2022-09-23T05:04:02.354Z,87.01
2022-09-23T05:06:31.464Z,87.49
2022-09-23T05:08:59.596Z,87.09
2022-09-23T05:11:27.036Z,87.25
2022-09-23T05:13:54.915Z,87.05
2022-09-23T05:16:23.328Z,87.01
2022-09-23T05:18:50.875Z,87.58
2022-09-23T05:21:20.509Z,87.46
2022-09-23T05:23:55.658Z,87.05
2022-09-23T05:26:25.317Z,87.13
2022-09-23T05:28:53.017Z,86.77
2022-09-23T05:31:24.835Z,86.58
2022-09-23T05:33:57.403Z,87.09
2022-09-23T05:36:25.409Z,86.84
2022-09-23T05:38:53.654Z,87.01
2022-09-23T05:41:23.143Z,86.64
2022-09-23T05:43:54.048Z,86.58
2022-09-23T05:46:29.529Z,86.58
2022-09-23T05:49:02.109Z,87.10
2022-09-23T05:51:31.141Z,86.95
2022-09-23T05:53:59.304Z,86.46
2022-09-23T05:56:27.924Z,86.73
2022-09-23T05:58:56.757Z,86.60
2022-09-23T06:01:25.448Z,86.08
2022-09-23T06:03:53.422Z,86.25
2022-09-23T06:06:27.780Z,85.91
2022-09-23T06:08:54.777Z,85.87
2022-09-23T06:11:21.665Z,86.05
2022-09-23T06:13:49.488Z,85.84
2022-09-23T06:16:16.332Z,85.67
2022-09-23T06:18:45.432Z,85.77
2022-09-23T06:21:14.912Z,85.54
2022-09-23T06:23:42.156Z,85.45
2022-09-23T06:26:11.783Z,85.40
2022-09-23T06:28:40.977Z,85.71
2022-09-23T06:31:14.874Z,85.42
2022-09-23T06:33:42.701Z,85.33
2022-09-23T06:36:10.341Z,84.30
2022-09-23T06:38:44.152Z,83.84
2022-09-23T06:41:13.158Z,83.60
2022-09-23T06:43:39.698Z,82.59
2022-09-23T06:46:07.467Z,82.54
2022-09-23T06:48:37.605Z,82.24
2022-09-23T06:51:07.167Z,81.18
2022-09-23T06:53:34.479Z,81.72
2022-09-23T06:56:06.317Z,81.34
2022-09-23T06:58:35.443Z,81.45
2022-09-23T07:01:07.219Z,81.47
2022-09-23T07:03:34.937Z,81.36
2022-09-23T07:06:02.385Z,81.28
2022-09-23T07:08:30.743Z,81.61
2022-09-23T07:10:59.621Z,81.16
2022-09-23T07:13:26.739Z,80.94
2022-09-23T07:15:59.038Z,81.30
2022-09-23T07:18:26.530Z,80.80
2022-09-23T07:20:53.899Z,80.44
2022-09-23T07:23:21.052Z,80.16
2022-09-23T07:25:50.443Z,79.35
2022-09-23T07:28:17.482Z,79.49
2022-09-23T07:30:54.889Z,79.40
2022-09-23T07:33:32.122Z,78.17
2022-09-23T07:35:59.533Z,76.83
2022-09-23T07:38:30.097Z,76.89
2022-09-23T07:41:05.211Z,77.15
2022-09-23T07:43:32.469Z,76.71
2022-09-23T07:46:05.011Z,75.94
2022-09-23T07:48:34.387Z,75.55
2022-09-23T07:51:10.254Z,75.14
2022-09-23T07:53:37.082Z,74.49
2022-09-23T07:56:07.641Z,74.56
2022-09-23T07:58:35.334Z,74.67
2022-09-23T08:01:07.609Z,74.45
2022-09-23T08:03:35.188Z,73.79
2022-09-23T08:06:12.505Z,73.69
2022-09-23T08:08:43.668Z,73.37
2022-09-23T08:11:13.159Z,73.18
2022-09-23T08:13:40.460Z,72.43
2022-09-23T08:16:07.136Z,72.48
2022-09-23T08:18:34.254Z,72.35
2022-09-23T08:21:00.891Z,71.28
2022-09-23T08:23:27.717Z,70.60
2022-09-23T08:26:02.437Z,67.71
2022-09-23T08:28:29.074Z,66.97
2022-09-23T08:30:56.908Z,65.91
2022-09-23T08:33:24.405Z,64.19
2022-09-23T08:35:52.295Z,63.71
2022-09-23T08:38:20.469Z,63.31
2022-09-23T08:40:49.567Z,63.13
2022-09-23T08:43:26.353Z,62.57
2022-09-23T08:45:55.333Z,62.47
2022-09-23T08:48:31.289Z,62.52
2022-09-23T08:51:12.315Z,62.16
2022-09-23T08:53:39.229Z,62.02
2022-09-23T08:56:26.000Z,61.77
2022-09-23T08:59:09.383Z,62.38
2022-09-23T09:01:43.873Z,61.75
2022-09-23T09:04:16.434Z,61.54
2022-09-23T09:07:00.125Z,61.55
2022-09-23T09:09:40.046Z,61.11
2022-09-23T09:12:32.360Z,61.14
2022-09-23T09:15:06.945Z,59.57
2022-09-23T09:17:36.450Z,60.27
2022-09-23T09:20:21.483Z,59.08
2022-09-23T09:22:54.177Z,58.39
2022-09-23T09:25:37.910Z,58.87
2022-09-23T09:28:30.804Z,58.32
2022-09-23T09:31:02.699Z,58.07
2022-09-23T09:33:40.731Z,58.15
2022-09-23T09:36:31.806Z,56.78
2022-09-23T09:38:59.598Z,56.74
2022-09-23T09:41:30.977Z,55.98
2022-09-23T09:44:01.460Z,56.29
2022-09-23T09:46:39.791Z,56.34
2022-09-23T09:52:26.855Z,55.46
2022-09-23T09:54:53.495Z,55.85
2022-09-23T09:57:35.313Z,56.09
2022-09-23T10:00:25.722Z,56.24
2022-09-23T10:02:59.705Z,55.25
2022-09-23T10:05:31.172Z,55.51
2022-09-23T10:08:22.893Z,54.92
2022-09-23T10:10:58.646Z,54.70
2022-09-23T10:13:27.284Z,54.51
2022-09-23T10:15:55.028Z,53.94
2022-09-23T10:18:37.453Z,52.81
2022-09-23T10:21:15.880Z,53.46
2022-09-23T10:23:44.722Z,53.86
2022-09-23T10:26:13.974Z,53.21
2022-09-23T10:28:52.377Z,51.93
2022-09-23T10:31:30.115Z,50.52
2022-09-23T10:34:02.423Z,50.04
2022-09-23T10:36:31.737Z,50.72
2022-09-23T10:39:23.066Z,50.55
2022-09-23T10:42:26.899Z,50.48
2022-09-23T10:45:25.645Z,50.92
2022-09-23T10:48:00.722Z,50.65
2022-09-23T10:50:47.819Z,49.88
2022-09-23T10:53:36.657Z,48.60
2022-09-23T10:56:21.737Z,49.57
2022-09-23T10:59:27.949Z,48.34
2022-09-23T11:02:35.809Z,47.74
2022-09-23T11:05:15.623Z,46.96
2022-09-23T11:08:06.750Z,46.71
2022-09-23T11:10:48.903Z,47.18
2022-09-23T11:13:37.728Z,45.29
2022-09-23T11:16:21.598Z,46.42
2022-09-23T11:19:25.627Z,46.10
2022-09-23T11:35:19.390Z,47.12
2022-09-23T11:37:57.066Z,47.47
2022-09-23T11:40:30.608Z,47.42
2022-09-23T11:43:01.434Z,46.28
2022-09-23T11:45:36.534Z,46.59
2022-09-23T11:48:13.660Z,46.76
2022-09-23T11:50:49.452Z,47.32
2022-09-23T11:53:23.699Z,47.07
2022-09-23T11:56:04.867Z,46.99
2022-09-23T11:58:42.671Z,47.12
2022-09-23T12:01:37.138Z,47.51
2022-09-23T12:04:19.212Z,45.94
2022-09-23T12:06:52.459Z,45.34
2022-09-23T12:09:53.998Z,46.75
2022-09-23T12:12:48.722Z,46.80
2022-09-23T12:15:34.336Z,46.88
2022-09-23T12:18:23.273Z,47.45
2022-09-23T12:21:02.919Z,47.34
2022-09-23T12:23:39.508Z,47.06
2022-09-23T12:26:12.578Z,47.94
2022-09-23T12:28:44.422Z,47.34
2022-09-23T12:31:16.590Z,46.04
2022-09-23T12:33:54.051Z,46.64
2022-09-23T12:36:26.881Z,46.76
2022-09-23T12:39:01.973Z,47.41
2022-09-23T12:41:40.804Z,46.33
2022-09-23T12:44:31.614Z,46.97
2022-09-23T12:47:25.654Z,46.80
2022-09-23T12:49:56.551Z,47.18
2022-09-23T12:52:29.770Z,46.22
2022-09-23T12:55:25.976Z,46.25
2022-09-23T12:57:52.419Z,45.87
2022-09-23T13:00:26.449Z,44.48
2022-09-23T13:03:17.261Z,44.29
2022-09-23T13:06:06.185Z,45.29
2022-09-23T13:08:38.360Z,45.55
2022-09-23T13:11:13.140Z,44.83
2022-09-23T13:13:43.392Z,44.71
2022-09-23T13:16:26.151Z,44.73
2022-09-23T13:18:54.542Z,45.77
2022-09-23T13:21:58.909Z,46.47
2022-09-23T13:24:29.038Z,45.80
2022-09-23T13:27:06.531Z,45.44
2022-09-23T13:29:50.127Z,45.81
2022-09-23T13:32:20.617Z,46.23
2022-09-23T13:34:58.509Z,45.96
2022-09-23T13:37:29.981Z,46.71
2022-09-23T13:40:10.508Z,47.32
2022-09-23T13:42:40.591Z,47.12
2022-09-23T13:45:17.085Z,47.03
2022-09-23T13:47:45.616Z,47.25
2022-09-23T13:50:23.281Z,46.98
2022-09-23T13:52:55.328Z,47.16
2022-09-23T13:55:39.176Z,46.89
2022-09-23T13:58:23.782Z,46.63
2022-09-23T14:00:51.387Z,47.46
2022-09-23T14:03:23.714Z,48.01
2022-09-23T14:05:51.951Z,47.95
2022-09-23T14:08:19.588Z,48.09
2022-09-23T14:10:46.859Z,48.12
2022-09-23T14:13:25.993Z,48.54
2022-09-23T14:15:55.875Z,47.91
2022-09-23T14:18:29.228Z,47.63
2022-09-23T14:20:55.913Z,45.75
2022-09-23T14:23:22.437Z,45.69
2022-09-23T14:25:51.322Z,45.75
2022-09-23T14:28:20.529Z,45.47
2022-09-23T14:30:48.118Z,45.75
2022-09-23T14:33:22.371Z,46.79
2022-09-23T14:35:52.517Z,46.72
2022-09-23T14:38:47.898Z,46.82
2022-09-23T14:41:24.168Z,47.11
2022-09-23T14:43:50.579Z,46.46
2022-09-23T14:46:19.631Z,46.69
2022-09-23T14:49:06.028Z,46.77
2022-09-23T14:51:40.894Z,47.87
2022-09-23T14:54:43.951Z,47.75
2022-09-23T14:57:22.591Z,47.64
2022-09-23T15:00:15.943Z,48.14
2022-09-23T15:02:45.930Z,48.67
2022-09-23T15:05:23.452Z,48.86
2022-09-23T15:07:52.946Z,49.17
2022-09-23T15:10:28.062Z,48.34
2022-09-23T15:13:05.333Z,47.48
2022-09-23T15:15:33.285Z,48.41
2022-09-23T15:18:11.217Z,47.92
2022-09-23T15:20:37.843Z,48.22
2022-09-23T15:23:04.511Z,48.08
2022-09-23T15:25:41.741Z,48.76
2022-09-23T15:28:08.158Z,49.16
2022-09-23T15:30:36.482Z,49.30
2022-09-23T15:33:03.206Z,49.71
2022-09-23T15:35:33.251Z,49.73
2022-09-23T15:38:03.730Z,50.09
2022-09-23T15:40:37.395Z,49.94
2022-09-23T15:43:21.227Z,50.81
2022-09-23T15:46:04.389Z,50.68
2022-09-23T15:48:39.309Z,51.80
2022-09-23T15:51:09.698Z,51.84
2022-09-23T15:53:39.267Z,52.22
2022-09-23T15:56:06.219Z,52.07
2022-09-23T15:58:33.285Z,52.38
2022-09-23T16:01:01.176Z,52.30
2022-09-23T16:03:29.677Z,52.88
2022-09-23T16:06:01.280Z,53.00
2022-09-23T16:08:37.289Z,53.72
2022-09-23T16:11:05.449Z,53.76
2022-09-23T16:13:33.278Z,54.25
2022-09-23T16:16:04.481Z,54.58
2022-09-23T16:18:31.903Z,54.76
2022-09-23T16:20:59.420Z,54.95
2022-09-23T16:23:38.802Z,55.10
2022-09-23T16:26:13.885Z,55.70
2022-09-23T16:28:40.385Z,55.96
2022-09-23T16:31:07.144Z,55.77
2022-09-23T16:33:33.745Z,56.33
2022-09-23T16:36:03.108Z,56.73
2022-09-23T16:38:33.238Z,56.59
2022-09-23T16:41:00.451Z,57.14
2022-09-23T16:43:32.017Z,57.19
2022-09-23T16:45:59.438Z,57.55
2022-09-23T16:48:25.966Z,57.90
2022-09-23T16:50:53.997Z,58.12
2022-09-23T16:53:20.658Z,57.95
2022-09-23T16:55:47.194Z,58.63
2022-09-23T16:58:13.677Z,58.79
2022-09-23T17:00:59.292Z,58.98
2022-09-23T17:03:40.832Z,59.08
2022-09-23T17:06:12.149Z,59.56
2022-09-23T17:08:40.685Z,59.68
2022-09-23T17:11:08.493Z,60.22
2022-09-23T17:13:35.524Z,60.01
2022-09-23T17:16:03.090Z,60.73
2022-09-23T17:18:30.049Z,61.15
2022-09-23T17:20:59.380Z,61.25
2022-09-23T17:23:29.223Z,61.03
2022-09-23T17:25:55.711Z,61.45
2022-09-23T17:28:22.185Z,61.78
2022-09-23T17:30:51.832Z,61.44
2022-09-23T17:33:19.366Z,61.83
2022-09-23T17:35:45.771Z,62.04
2022-09-23T17:38:12.228Z,62.50
2022-09-23T17:40:40.410Z,62.13
2022-09-23T17:43:07.800Z,62.62
2022-09-23T17:45:37.378Z,63.54
2022-09-23T17:48:04.028Z,63.39
2022-09-23T17:50:31.236Z,64.13
2022-09-23T17:53:02.603Z,64.29
2022-09-23T17:55:29.187Z,64.19
2022-09-23T17:57:55.625Z,64.21
2022-09-23T18:00:22.692Z,64.75
2022-09-23T18:02:52.216Z,64.79
2022-09-23T18:05:18.723Z,64.63
2022-09-23T18:07:45.211Z,65.01
2022-09-23T18:10:11.708Z,65.16
2022-09-23T18:12:38.127Z,65.57
2022-09-23T18:15:04.933Z,65.13
2022-09-23T18:17:31.474Z,65.31
2022-09-23T18:19:58.268Z,65.41
2022-09-23T18:22:24.765Z,65.53
2022-09-23T18:24:51.229Z,65.90
2022-09-23T18:27:17.712Z,65.77
2022-09-23T18:29:44.132Z,66.05
2022-09-23T18:32:14.054Z,65.96
2022-09-23T18:34:41.025Z,66.41
2022-09-23T18:37:15.412Z,66.43
2022-09-23T18:39:42.841Z,66.72
2022-09-23T18:42:09.271Z,66.75
2022-09-23T18:44:36.455Z,66.50
2022-09-23T18:47:04.868Z,66.49
2022-09-23T18:49:50.068Z,66.65
2022-09-23T18:52:16.515Z,67.37
2022-09-23T18:54:43.952Z,67.46
2022-09-23T18:57:13.114Z,67.57
2022-09-23T18:59:39.972Z,67.57
2022-09-23T19:02:06.615Z,67.77
2022-09-23T19:04:33.549Z,68.13
2022-09-23T19:07:00.373Z,68.04
2022-09-23T19:09:28.329Z,68.46
2022-09-23T19:11:55.788Z,68.49
2022-09-23T19:14:22.257Z,68.76
2022-09-23T19:16:51.465Z,68.73
2022-09-23T19:19:17.932Z,69.04
2022-09-23T19:21:44.387Z,68.87
2022-09-23T19:24:15.444Z,69.62
2022-09-23T19:26:42.519Z,69.56
2022-09-23T19:29:14.525Z,69.63
2022-09-23T19:31:42.045Z,69.71
2022-09-23T19:34:13.175Z,69.86
2022-09-23T19:36:42.559Z,69.64
2022-09-23T19:39:18.365Z,70.13
2022-09-23T19:41:46.049Z,70.04
2022-09-23T19:44:12.845Z,69.91
2022-09-23T19:46:42.820Z,70.46
2022-09-23T19:49:11.048Z,70.67
2022-09-23T19:51:38.916Z,70.83
2022-09-23T19:54:07.266Z,70.44
2022-09-23T19:56:35.482Z,70.45
2022-09-23T19:59:04.631Z,70.33
2022-09-23T20:01:32.893Z,70.82
2022-09-23T20:04:00.007Z,70.88
2022-09-23T20:06:34.071Z,70.97
2022-09-23T20:09:03.359Z,70.95
2022-09-23T20:11:32.178Z,71.53
2022-09-23T20:14:06.650Z,71.27
2022-09-23T20:16:37.186Z,71.83
2022-09-23T20:19:05.118Z,72.83
2022-09-23T20:21:33.454Z,73.27
2022-09-23T20:24:00.688Z,73.24
2022-09-23T20:26:45.926Z,73.59
2022-09-23T20:29:12.443Z,73.61
2022-09-23T20:31:40.443Z,74.29
2022-09-23T20:34:08.292Z,74.27
2022-09-23T20:36:41.327Z,74.91
2022-09-23T20:39:09.834Z,75.95
2022-09-23T20:41:38.336Z,76.00
2022-09-23T20:44:09.427Z,76.31
2022-09-23T20:46:36.162Z,76.90
2022-09-23T20:49:03.863Z,76.21
2022-09-23T20:51:33.491Z,76.23
2022-09-23T20:54:00.641Z,76.77
2022-09-23T20:56:28.081Z,77.41
2022-09-23T20:58:59.836Z,76.77
2022-09-23T21:01:27.916Z,76.98
2022-09-23T21:03:55.805Z,77.63
2022-09-23T21:06:26.064Z,77.48
2022-09-23T21:08:55.818Z,78.40
2022-09-23T21:11:22.509Z,77.81
2022-09-23T21:13:51.307Z,77.57
2022-09-23T21:16:19.949Z,77.95
2022-09-23T21:18:48.002Z,77.45
2022-09-23T21:21:15.004Z,77.87
2022-09-23T21:23:43.279Z,77.37
2022-09-23T21:26:11.288Z,77.80
2022-09-23T21:28:39.964Z,78.10
2022-09-23T21:31:25.235Z,78.82
2022-09-23T21:33:56.873Z,79.62
2022-09-23T21:36:24.561Z,79.32
2022-09-23T21:38:51.894Z,79.62
2022-09-23T21:41:19.379Z,79.26
2022-09-23T21:43:46.014Z,79.83
2022-09-23T21:46:14.756Z,80.46
2022-09-23T21:48:42.260Z,80.68
2022-09-23T21:51:11.850Z,79.94
2022-09-23T21:53:39.603Z,80.30
2022-09-23T21:56:15.735Z,80.18
2022-09-23T21:58:44.757Z,81.00
2022-09-23T22:01:20.339Z,80.91
2022-09-23T22:03:54.990Z,80.60
2022-09-23T22:06:24.091Z,80.04
2022-09-23T22:08:59.648Z,80.16
2022-09-23T22:11:50.523Z,80.32
2022-09-23T22:14:19.713Z,80.49
2022-09-23T22:16:46.321Z,80.72
2022-09-23T22:19:14.707Z,80.72
2022-09-23T22:21:42.801Z,80.32
2022-09-23T22:24:10.623Z,79.74
2022-09-23T22:26:42.918Z,79.68
2022-09-23T22:29:30.796Z,79.73
2022-09-23T22:32:17.242Z,80.01
2022-09-23T22:34:53.199Z,80.11
2022-09-23T22:37:25.423Z,79.20
2022-09-23T22:39:51.910Z,79.34
2022-09-23T22:42:21.138Z,79.03
2022-09-23T22:44:48.217Z,78.97
2022-09-23T22:47:15.493Z,79.44
2022-09-23T22:49:42.823Z,79.23
2022-09-23T22:52:11.202Z,79.44
2022-09-23T22:54:38.436Z,79.15
2022-09-23T22:57:09.063Z,78.82
2022-09-23T22:59:37.422Z,79.18
2022-09-23T23:02:05.274Z,79.17
2022-09-23T23:04:32.453Z,79.42
2022-09-23T23:06:59.409Z,79.30
2022-09-23T23:09:26.191Z,78.89
2022-09-23T23:11:52.791Z,78.98
2022-09-23T23:14:19.399Z,79.41
2022-09-23T23:16:46.363Z,79.37
2022-09-23T23:19:16.704Z,79.34
2022-09-23T23:21:44.655Z,78.86
2022-09-23T23:24:16.014Z,79.12
2022-09-23T23:26:43.275Z,79.24
2022-09-23T23:29:11.784Z,79.26
2022-09-23T23:31:38.582Z,79.31
2022-09-23T23:34:08.276Z,79.53
2022-09-23T23:36:34.957Z,79.65
2022-09-23T23:39:01.849Z,79.76
2022-09-23T23:41:29.492Z,80.00
2022-09-23T23:43:58.810Z,80.11
2022-09-23T23:46:27.494Z,79.99
2022-09-23T23:48:55.221Z,80.35
2022-09-23T23:51:22.970Z,80.03
2022-09-23T23:53:49.434Z,80.63
2022-09-23T23:56:19.584Z,80.50
2022-09-23T23:58:46.695Z,80.55
